sensor_id;sensor_type;location;lat;lon;timestamp;temperature;humidity
26990;DHT22;14537;47.788;11.858;2024-03-17T00:01:04;7.10;99.90
26990;DHT22;14537;47.788;11.858;2024-03-17T00:03:30;7.10;99.90
26990;DHT22;14537;47.788;11.858;2024-03-17T00:06:00;7.10;99.90
26990;DHT22;14537;47.788;11.858;2024-03-17T00:08:27;7.10;99.90
26990;DHT22;14537;47.788;11.858;2024-03-17T00:10:53;7.10;99.90
26990;DHT22;14537;47.788;11.858;2024-03-17T00:13:20;7.10;99.90
26990;DHT22;14537;47.788;11.858;2024-03-17T00:15:47;7.10;99.90
26990;DHT22;14537;47.788;11.858;2024-03-17T00:18:13;7.10;99.90
26990;DHT22;14537;47.788;11.858;2024-03-17T00:20:38;7.10;99.90
26990;DHT22;14537;47.788;11.858;2024-03-17T00:23:04;7.10;99.90
26990;DHT22;14537;47.788;11.858;2024-03-17T00:25:35;7.10;99.90
26990;DHT22;14537;47.788;11.858;2024-03-17T00:28:04;7.10;99.90
26990;DHT22;14537;47.788;11.858;2024-03-17T00:30:30;7.10;99.90
26990;DHT22;14537;47.788;11.858;2024-03-17T00:32:56;7.00;99.90
26990;DHT22;14537;47.788;11.858;2024-03-17T00:35:23;7.10;99.90
26990;DHT22;14537;47.788;11.858;2024-03-17T00:37:50;7.10;99.90
26990;DHT22;14537;47.788;11.858;2024-03-17T00:40:17;7.10;99.90
26990;DHT22;14537;47.788;11.858;2024-03-17T00:42:43;7.10;99.90
26990;DHT22;14537;47.788;11.858;2024-03-17T00:45:10;7.00;99.90
26990;DHT22;14537;47.788;11.858;2024-03-17T00:47:37;7.10;99.90
26990;DHT22;14537;47.788;11.858;2024-03-17T00:50:03;7.10;99.90
26990;DHT22;14537;47.788;11.858;2024-03-17T00:52:29;7.10;99.90
26990;DHT22;14537;47.788;11.858;2024-03-17T00:54:55;7.20;99.90
26990;DHT22;14537;47.788;11.858;2024-03-17T00:57:21;7.20;99.90
26990;DHT22;14537;47.788;11.858;2024-03-17T00:59:46;7.20;99.90
26990;DHT22;14537;47.788;11.858;2024-03-17T01:02:12;7.20;99.90
26990;DHT22;14537;47.788;11.858;2024-03-17T01:04:40;7.20;99.90
26990;DHT22;14537;47.788;11.858;2024-03-17T01:07:06;7.20;99.90
26990;DHT22;14537;47.788;11.858;2024-03-17T01:09:31;7.20;99.90
26990;DHT22;14537;47.788;11.858;2024-03-17T01:11:57;7.20;99.90
26990;DHT22;14537;47.788;11.858;2024-03-17T01:14:22;7.20;99.90
26990;DHT22;14537;47.788;11.858;2024-03-17T01:16:50;7.20;99.90
26990;DHT22;14537;47.788;11.858;2024-03-17T01:19:16;7.20;99.90
26990;DHT22;14537;47.788;11.858;2024-03-17T01:21:42;7.20;99.90
26990;DHT22;14537;47.788;11.858;2024-03-17T01:24:08;7.20;99.90
26990;DHT22;14537;47.788;11.858;2024-03-17T01:26:33;7.20;99.90
26990;DHT22;14537;47.788;11.858;2024-03-17T01:28:59;7.20;99.90
26990;DHT22;14537;47.788;11.858;2024-03-17T01:31:25;7.20;99.90
26990;DHT22;14537;47.788;11.858;2024-03-17T01:33:50;7.20;99.90
26990;DHT22;14537;47.788;11.858;2024-03-17T01:36:16;7.20;99.90
26990;DHT22;14537;47.788;11.858;2024-03-17T01:38:41;7.20;99.90
26990;DHT22;14537;47.788;11.858;2024-03-17T01:41:07;7.20;99.90
26990;DHT22;14537;47.788;11.858;2024-03-17T01:43:33;7.20;99.90
26990;DHT22;14537;47.788;11.858;2024-03-17T01:45:59;7.20;99.90
26990;DHT22;14537;47.788;11.858;2024-03-17T01:48:25;7.10;99.90
26990;DHT22;14537;47.788;11.858;2024-03-17T01:50:53;7.10;99.90
26990;DHT22;14537;47.788;11.858;2024-03-17T01:53:21;7.10;99.90
26990;DHT22;14537;47.788;11.858;2024-03-17T01:55:49;7.10;99.90
26990;DHT22;14537;47.788;11.858;2024-03-17T01:58:15;7.10;99.90
26990;DHT22;14537;47.788;11.858;2024-03-17T02:00:42;7.10;99.90
26990;DHT22;14537;47.788;11.858;2024-03-17T02:03:08;7.10;99.90
26990;DHT22;14537;47.788;11.858;2024-03-17T02:05:35;7.10;99.90
26990;DHT22;14537;47.788;11.858;2024-03-17T02:08:04;7.10;99.90
26990;DHT22;14537;47.788;11.858;2024-03-17T02:10:29;7.10;99.90
26990;DHT22;14537;47.788;11.858;2024-03-17T02:12:55;7.10;99.90
26990;DHT22;14537;47.788;11.858;2024-03-17T02:15:21;7.10;99.90
26990;DHT22;14537;47.788;11.858;2024-03-17T02:17:46;7.10;99.90
26990;DHT22;14537;47.788;11.858;2024-03-17T02:20:12;7.00;99.90
26990;DHT22;14537;47.788;11.858;2024-03-17T02:22:39;7.00;99.90
26990;DHT22;14537;47.788;11.858;2024-03-17T02:25:06;7.00;99.90
26990;DHT22;14537;47.788;11.858;2024-03-17T02:27:35;7.00;99.90
26990;DHT22;14537;47.788;11.858;2024-03-17T02:30:04;6.90;99.90
26990;DHT22;14537;47.788;11.858;2024-03-17T02:32:34;7.00;99.90
26990;DHT22;14537;47.788;11.858;2024-03-17T02:34:59;7.00;99.90
26990;DHT22;14537;47.788;11.858;2024-03-17T02:37:25;6.90;99.90
26990;DHT22;14537;47.788;11.858;2024-03-17T02:39:51;6.90;99.90
26990;DHT22;14537;47.788;11.858;2024-03-17T02:42:16;6.90;99.90
26990;DHT22;14537;47.788;11.858;2024-03-17T02:44:42;6.90;99.90
26990;DHT22;14537;47.788;11.858;2024-03-17T02:47:08;6.90;99.90
26990;DHT22;14537;47.788;11.858;2024-03-17T02:49:40;6.90;99.90
26990;DHT22;14537;47.788;11.858;2024-03-17T02:52:08;6.80;99.90
26990;DHT22;14537;47.788;11.858;2024-03-17T02:54:38;6.80;99.90
26990;DHT22;14537;47.788;11.858;2024-03-17T02:57:04;6.80;99.90
26990;DHT22;14537;47.788;11.858;2024-03-17T02:59:30;6.80;99.90
26990;DHT22;14537;47.788;11.858;2024-03-17T03:01:56;6.80;99.90
26990;DHT22;14537;47.788;11.858;2024-03-17T03:04:22;6.70;99.90
26990;DHT22;14537;47.788;11.858;2024-03-17T03:06:48;6.70;99.90
26990;DHT22;14537;47.788;11.858;2024-03-17T03:09:14;6.70;99.90
26990;DHT22;14537;47.788;11.858;2024-03-17T03:11:45;6.80;99.90
26990;DHT22;14537;47.788;11.858;2024-03-17T03:14:12;6.70;99.90
26990;DHT22;14537;47.788;11.858;2024-03-17T03:16:38;6.80;99.90
26990;DHT22;14537;47.788;11.858;2024-03-17T03:19:04;6.80;99.90
26990;DHT22;14537;47.788;11.858;2024-03-17T03:21:31;6.80;99.90
26990;DHT22;14537;47.788;11.858;2024-03-17T03:23:56;6.70;99.90
26990;DHT22;14537;47.788;11.858;2024-03-17T03:26:22;6.80;99.90
26990;DHT22;14537;47.788;11.858;2024-03-17T03:28:50;6.80;99.90
26990;DHT22;14537;47.788;11.858;2024-03-17T03:31:16;6.80;99.90
26990;DHT22;14537;47.788;11.858;2024-03-17T03:33:43;6.80;99.90
26990;DHT22;14537;47.788;11.858;2024-03-17T03:36:13;6.80;99.90
26990;DHT22;14537;47.788;11.858;2024-03-17T03:38:39;6.80;99.90
26990;DHT22;14537;47.788;11.858;2024-03-17T03:41:15;6.80;99.90
26990;DHT22;14537;47.788;11.858;2024-03-17T03:43:41;6.80;99.90
26990;DHT22;14537;47.788;11.858;2024-03-17T03:46:07;6.80;99.90
26990;DHT22;14537;47.788;11.858;2024-03-17T03:48:34;6.80;99.90
26990;DHT22;14537;47.788;11.858;2024-03-17T03:51:03;6.80;99.90
26990;DHT22;14537;47.788;11.858;2024-03-17T03:53:30;6.80;99.90
26990;DHT22;14537;47.788;11.858;2024-03-17T03:55:56;6.70;99.90
26990;DHT22;14537;47.788;11.858;2024-03-17T03:58:21;6.70;99.90
26990;DHT22;14537;47.788;11.858;2024-03-17T04:00:47;6.70;99.90
26990;DHT22;14537;47.788;11.858;2024-03-17T04:03:13;6.70;99.90
26990;DHT22;14537;47.788;11.858;2024-03-17T04:05:38;6.70;99.90
26990;DHT22;14537;47.788;11.858;2024-03-17T04:08:04;6.70;99.90
26990;DHT22;14537;47.788;11.858;2024-03-17T04:10:30;6.80;99.90
26990;DHT22;14537;47.788;11.858;2024-03-17T04:12:56;6.70;99.90
26990;DHT22;14537;47.788;11.858;2024-03-17T04:15:22;6.60;99.90
26990;DHT22;14537;47.788;11.858;2024-03-17T04:17:49;6.50;99.90
26990;DHT22;14537;47.788;11.858;2024-03-17T04:20:14;6.40;99.90
26990;DHT22;14537;47.788;11.858;2024-03-17T04:22:43;6.30;99.90
26990;DHT22;14537;47.788;11.858;2024-03-17T04:25:10;6.30;99.90
26990;DHT22;14537;47.788;11.858;2024-03-17T04:27:36;6.20;99.90
26990;DHT22;14537;47.788;11.858;2024-03-17T04:30:02;6.10;99.90
26990;DHT22;14537;47.788;11.858;2024-03-17T04:32:31;6.10;99.90
26990;DHT22;14537;47.788;11.858;2024-03-17T04:34:57;6.00;99.90
26990;DHT22;14537;47.788;11.858;2024-03-17T04:37:23;5.90;99.90
26990;DHT22;14537;47.788;11.858;2024-03-17T04:39:50;5.90;99.90
26990;DHT22;14537;47.788;11.858;2024-03-17T04:42:17;5.90;99.90
26990;DHT22;14537;47.788;11.858;2024-03-17T04:44:44;5.90;99.90
26990;DHT22;14537;47.788;11.858;2024-03-17T04:47:09;5.90;99.90
26990;DHT22;14537;47.788;11.858;2024-03-17T04:49:43;5.90;99.90
26990;DHT22;14537;47.788;11.858;2024-03-17T04:52:10;5.90;99.90
26990;DHT22;14537;47.788;11.858;2024-03-17T04:54:36;5.90;99.90
26990;DHT22;14537;47.788;11.858;2024-03-17T04:57:02;5.90;99.90
26990;DHT22;14537;47.788;11.858;2024-03-17T04:59:28;5.90;99.90
26990;DHT22;14537;47.788;11.858;2024-03-17T05:01:54;5.90;99.90
26990;DHT22;14537;47.788;11.858;2024-03-17T05:04:20;5.90;99.90
26990;DHT22;14537;47.788;11.858;2024-03-17T05:06:46;5.90;99.90
26990;DHT22;14537;47.788;11.858;2024-03-17T05:09:15;5.90;99.90
26990;DHT22;14537;47.788;11.858;2024-03-17T05:11:41;5.90;99.90
26990;DHT22;14537;47.788;11.858;2024-03-17T05:14:10;5.90;99.90
26990;DHT22;14537;47.788;11.858;2024-03-17T05:16:36;5.90;99.90
26990;DHT22;14537;47.788;11.858;2024-03-17T05:19:01;5.90;99.90
26990;DHT22;14537;47.788;11.858;2024-03-17T05:21:29;5.90;99.90
26990;DHT22;14537;47.788;11.858;2024-03-17T05:23:58;5.90;99.90
26990;DHT22;14537;47.788;11.858;2024-03-17T05:26:26;5.90;99.90
26990;DHT22;14537;47.788;11.858;2024-03-17T05:28:52;5.90;99.90
26990;DHT22;14537;47.788;11.858;2024-03-17T05:31:17;5.90;99.90
26990;DHT22;14537;47.788;11.858;2024-03-17T05:33:44;5.90;99.90
26990;DHT22;14537;47.788;11.858;2024-03-17T05:36:10;5.90;99.90
26990;DHT22;14537;47.788;11.858;2024-03-17T05:38:36;5.80;99.90
26990;DHT22;14537;47.788;11.858;2024-03-17T05:41:04;5.80;99.90
26990;DHT22;14537;47.788;11.858;2024-03-17T05:43:32;5.80;99.90
26990;DHT22;14537;47.788;11.858;2024-03-17T05:46:10;5.80;99.90
26990;DHT22;14537;47.788;11.858;2024-03-17T05:48:40;5.70;99.90
26990;DHT22;14537;47.788;11.858;2024-03-17T05:51:10;5.80;99.90
26990;DHT22;14537;47.788;11.858;2024-03-17T05:53:37;5.80;99.90
26990;DHT22;14537;47.788;11.858;2024-03-17T05:56:05;5.90;99.90
26990;DHT22;14537;47.788;11.858;2024-03-17T05:58:33;6.00;99.90
26990;DHT22;14537;47.788;11.858;2024-03-17T06:01:02;6.00;99.90
26990;DHT22;14537;47.788;11.858;2024-03-17T06:03:28;6.00;99.90
26990;DHT22;14537;47.788;11.858;2024-03-17T06:05:53;6.10;99.90
26990;DHT22;14537;47.788;11.858;2024-03-17T06:08:19;6.20;99.90
26990;DHT22;14537;47.788;11.858;2024-03-17T06:10:48;6.20;99.90
26990;DHT22;14537;47.788;11.858;2024-03-17T06:13:15;6.20;99.90
26990;DHT22;14537;47.788;11.858;2024-03-17T06:15:45;6.30;99.90
26990;DHT22;14537;47.788;11.858;2024-03-17T06:18:14;6.30;99.90
26990;DHT22;14537;47.788;11.858;2024-03-17T06:20:45;6.40;99.90
26990;DHT22;14537;47.788;11.858;2024-03-17T06:23:12;6.40;99.90
26990;DHT22;14537;47.788;11.858;2024-03-17T06:25:42;6.40;99.90
26990;DHT22;14537;47.788;11.858;2024-03-17T06:28:08;6.50;99.90
26990;DHT22;14537;47.788;11.858;2024-03-17T06:30:35;6.60;99.90
26990;DHT22;14537;47.788;11.858;2024-03-17T06:33:01;6.50;99.90
26990;DHT22;14537;47.788;11.858;2024-03-17T06:35:27;6.50;99.90
26990;DHT22;14537;47.788;11.858;2024-03-17T06:37:59;6.60;99.90
26990;DHT22;14537;47.788;11.858;2024-03-17T06:40:25;6.70;99.90
26990;DHT22;14537;47.788;11.858;2024-03-17T06:42:51;6.70;99.90
26990;DHT22;14537;47.788;11.858;2024-03-17T06:45:17;6.80;99.90
26990;DHT22;14537;47.788;11.858;2024-03-17T06:47:46;6.90;99.90
26990;DHT22;14537;47.788;11.858;2024-03-17T06:50:11;7.00;99.90
26990;DHT22;14537;47.788;11.858;2024-03-17T06:52:37;7.10;99.90
26990;DHT22;14537;47.788;11.858;2024-03-17T06:55:04;7.00;99.90
26990;DHT22;14537;47.788;11.858;2024-03-17T06:57:30;7.10;99.90
26990;DHT22;14537;47.788;11.858;2024-03-17T06:59:55;7.10;99.90
26990;DHT22;14537;47.788;11.858;2024-03-17T07:02:21;7.20;99.90
26990;DHT22;14537;47.788;11.858;2024-03-17T07:04:47;7.30;99.90
26990;DHT22;14537;47.788;11.858;2024-03-17T07:07:14;7.40;99.90
26990;DHT22;14537;47.788;11.858;2024-03-17T07:09:42;7.40;99.90
26990;DHT22;14537;47.788;11.858;2024-03-17T07:12:09;7.40;99.90
26990;DHT22;14537;47.788;11.858;2024-03-17T07:14:35;7.30;99.90
26990;DHT22;14537;47.788;11.858;2024-03-17T07:17:01;7.20;99.90
26990;DHT22;14537;47.788;11.858;2024-03-17T07:19:27;7.20;99.90
26990;DHT22;14537;47.788;11.858;2024-03-17T07:21:54;7.10;99.90
26990;DHT22;14537;47.788;11.858;2024-03-17T07:24:20;7.10;99.90
26990;DHT22;14537;47.788;11.858;2024-03-17T07:26:48;7.10;99.90
26990;DHT22;14537;47.788;11.858;2024-03-17T07:29:14;7.00;99.90
26990;DHT22;14537;47.788;11.858;2024-03-17T07:31:40;7.10;99.90
26990;DHT22;14537;47.788;11.858;2024-03-17T07:34:06;7.00;99.90
26990;DHT22;14537;47.788;11.858;2024-03-17T07:36:31;7.10;99.90
26990;DHT22;14537;47.788;11.858;2024-03-17T07:38:57;7.10;99.90
26990;DHT22;14537;47.788;11.858;2024-03-17T07:41:22;7.10;99.90
26990;DHT22;14537;47.788;11.858;2024-03-17T07:43:49;7.10;99.90
26990;DHT22;14537;47.788;11.858;2024-03-17T07:46:15;7.10;99.90
26990;DHT22;14537;47.788;11.858;2024-03-17T07:48:42;7.10;99.90
26990;DHT22;14537;47.788;11.858;2024-03-17T07:51:10;7.20;99.90
26990;DHT22;14537;47.788;11.858;2024-03-17T07:53:37;7.20;99.90
26990;DHT22;14537;47.788;11.858;2024-03-17T07:56:08;7.20;99.90
26990;DHT22;14537;47.788;11.858;2024-03-17T07:58:39;7.20;99.90
26990;DHT22;14537;47.788;11.858;2024-03-17T08:01:12;7.20;99.90
26990;DHT22;14537;47.788;11.858;2024-03-17T08:03:40;7.20;99.90
26990;DHT22;14537;47.788;11.858;2024-03-17T08:06:07;7.30;99.90
26990;DHT22;14537;47.788;11.858;2024-03-17T08:08:34;7.30;99.90
26990;DHT22;14537;47.788;11.858;2024-03-17T08:11:00;7.30;99.90
26990;DHT22;14537;47.788;11.858;2024-03-17T08:13:29;7.40;99.90
26990;DHT22;14537;47.788;11.858;2024-03-17T08:16:06;7.40;99.90
26990;DHT22;14537;47.788;11.858;2024-03-17T08:18:33;7.40;99.90
26990;DHT22;14537;47.788;11.858;2024-03-17T08:21:00;7.40;99.90
26990;DHT22;14537;47.788;11.858;2024-03-17T08:23:26;7.60;99.90
26990;DHT22;14537;47.788;11.858;2024-03-17T08:25:56;7.70;99.90
26990;DHT22;14537;47.788;11.858;2024-03-17T08:28:23;7.80;99.90
26990;DHT22;14537;47.788;11.858;2024-03-17T08:30:56;8.00;99.90
26990;DHT22;14537;47.788;11.858;2024-03-17T08:33:22;8.10;99.90
26990;DHT22;14537;47.788;11.858;2024-03-17T08:36:08;8.10;99.90
26990;DHT22;14537;47.788;11.858;2024-03-17T08:38:34;8.10;99.90
26990;DHT22;14537;47.788;11.858;2024-03-17T08:43:30;8.30;99.90
26990;DHT22;14537;47.788;11.858;2024-03-17T08:46:03;8.30;99.90
26990;DHT22;14537;47.788;11.858;2024-03-17T08:48:32;8.40;99.90
26990;DHT22;14537;47.788;11.858;2024-03-17T08:50:58;8.40;99.90
26990;DHT22;14537;47.788;11.858;2024-03-17T08:53:26;8.40;99.90
26990;DHT22;14537;47.788;11.858;2024-03-17T08:55:52;8.50;99.90
26990;DHT22;14537;47.788;11.858;2024-03-17T08:58:18;8.50;99.90
26990;DHT22;14537;47.788;11.858;2024-03-17T09:00:44;8.50;99.90
26990;DHT22;14537;47.788;11.858;2024-03-17T09:03:11;8.60;99.90
26990;DHT22;14537;47.788;11.858;2024-03-17T09:05:38;8.70;99.90
26990;DHT22;14537;47.788;11.858;2024-03-17T09:08:07;8.80;99.90
26990;DHT22;14537;47.788;11.858;2024-03-17T09:10:42;8.90;99.90
26990;DHT22;14537;47.788;11.858;2024-03-17T09:13:14;8.90;99.90
26990;DHT22;14537;47.788;11.858;2024-03-17T09:15:40;9.00;99.90
26990;DHT22;14537;47.788;11.858;2024-03-17T09:18:06;9.10;99.90
26990;DHT22;14537;47.788;11.858;2024-03-17T09:20:32;9.20;99.90
26990;DHT22;14537;47.788;11.858;2024-03-17T09:22:57;9.20;99.90
26990;DHT22;14537;47.788;11.858;2024-03-17T09:25:23;9.30;99.90
26990;DHT22;14537;47.788;11.858;2024-03-17T09:27:49;9.40;99.90
26990;DHT22;14537;47.788;11.858;2024-03-17T09:30:15;9.50;99.90
26990;DHT22;14537;47.788;11.858;2024-03-17T09:32:40;9.50;99.90
26990;DHT22;14537;47.788;11.858;2024-03-17T09:35:07;9.60;99.90
26990;DHT22;14537;47.788;11.858;2024-03-17T09:37:32;9.70;99.90
26990;DHT22;14537;47.788;11.858;2024-03-17T09:39:58;9.90;99.90
26990;DHT22;14537;47.788;11.858;2024-03-17T09:42:26;10.00;99.90
26990;DHT22;14537;47.788;11.858;2024-03-17T09:44:53;10.10;99.90
26990;DHT22;14537;47.788;11.858;2024-03-17T09:47:22;10.10;99.90
26990;DHT22;14537;47.788;11.858;2024-03-17T09:49:49;10.10;99.90
26990;DHT22;14537;47.788;11.858;2024-03-17T09:52:25;10.20;99.90
26990;DHT22;14537;47.788;11.858;2024-03-17T09:54:56;10.30;99.90
26990;DHT22;14537;47.788;11.858;2024-03-17T09:57:23;10.50;99.90
26990;DHT22;14537;47.788;11.858;2024-03-17T09:59:53;10.70;99.90
26990;DHT22;14537;47.788;11.858;2024-03-17T10:02:22;10.90;99.90
26990;DHT22;14537;47.788;11.858;2024-03-17T10:04:48;11.10;99.90
26990;DHT22;14537;47.788;11.858;2024-03-17T10:07:14;11.30;99.90
26990;DHT22;14537;47.788;11.858;2024-03-17T10:09:41;11.40;99.90
26990;DHT22;14537;47.788;11.858;2024-03-17T10:12:25;11.30;99.90
26990;DHT22;14537;47.788;11.858;2024-03-17T10:15:01;11.40;99.90
26990;DHT22;14537;47.788;11.858;2024-03-17T10:17:33;11.50;99.90
26990;DHT22;14537;47.788;11.858;2024-03-17T10:20:18;11.60;99.90
26990;DHT22;14537;47.788;11.858;2024-03-17T10:23:04;11.60;99.90
26990;DHT22;14537;47.788;11.858;2024-03-17T10:25:32;11.70;99.90
26990;DHT22;14537;47.788;11.858;2024-03-17T10:27:57;11.70;99.90
26990;DHT22;14537;47.788;11.858;2024-03-17T10:30:24;11.80;99.90
26990;DHT22;14537;47.788;11.858;2024-03-17T10:32:59;11.70;99.90
26990;DHT22;14537;47.788;11.858;2024-03-17T10:38:03;11.70;99.90
26990;DHT22;14537;47.788;11.858;2024-03-17T10:40:31;11.60;99.90
26990;DHT22;14537;47.788;11.858;2024-03-17T10:42:58;11.60;99.90
26990;DHT22;14537;47.788;11.858;2024-03-17T10:45:26;11.40;99.90
26990;DHT22;14537;47.788;11.858;2024-03-17T10:47:52;11.40;99.90
26990;DHT22;14537;47.788;11.858;2024-03-17T10:50:23;11.60;99.90
26990;DHT22;14537;47.788;11.858;2024-03-17T10:52:52;11.60;99.90
26990;DHT22;14537;47.788;11.858;2024-03-17T10:55:23;11.70;99.90
26990;DHT22;14537;47.788;11.858;2024-03-17T10:57:51;11.70;99.90
26990;DHT22;14537;47.788;11.858;2024-03-17T11:00:21;11.80;99.90
26990;DHT22;14537;47.788;11.858;2024-03-17T11:02:48;11.80;99.90
26990;DHT22;14537;47.788;11.858;2024-03-17T11:05:23;11.80;99.90
26990;DHT22;14537;47.788;11.858;2024-03-17T11:07:51;11.80;99.90
26990;DHT22;14537;47.788;11.858;2024-03-17T11:10:26;11.90;99.90
26990;DHT22;14537;47.788;11.858;2024-03-17T11:12:55;12.10;99.90
26990;DHT22;14537;47.788;11.858;2024-03-17T11:20:43;12.00;99.90
26990;DHT22;14537;47.788;11.858;2024-03-17T11:23:09;12.00;99.90
26990;DHT22;14537;47.788;11.858;2024-03-17T11:25:38;12.20;99.90
26990;DHT22;14537;47.788;11.858;2024-03-17T11:28:06;12.40;99.90
26990;DHT22;14537;47.788;11.858;2024-03-17T11:30:41;12.50;99.90
26990;DHT22;14537;47.788;11.858;2024-03-17T11:39:05;13.00;99.90
26990;DHT22;14537;47.788;11.858;2024-03-17T11:47:00;12.60;99.90
26990;DHT22;14537;47.788;11.858;2024-03-17T11:49:27;12.80;99.90
26990;DHT22;14537;47.788;11.858;2024-03-17T11:51:55;13.10;99.90
26990;DHT22;14537;47.788;11.858;2024-03-17T11:54:24;13.30;99.90
26990;DHT22;14537;47.788;11.858;2024-03-17T11:56:53;13.30;99.90
26990;DHT22;14537;47.788;11.858;2024-03-17T11:59:20;13.20;99.90
26990;DHT22;14537;47.788;11.858;2024-03-17T12:01:46;13.30;99.90
26990;DHT22;14537;47.788;11.858;2024-03-17T12:04:18;13.30;99.90
26990;DHT22;14537;47.788;11.858;2024-03-17T12:06:47;13.60;99.90
26990;DHT22;14537;47.788;11.858;2024-03-17T12:09:27;13.90;99.90
26990;DHT22;14537;47.788;11.858;2024-03-17T12:14:28;13.50;99.90
26990;DHT22;14537;47.788;11.858;2024-03-17T12:16:59;13.40;99.90
26990;DHT22;14537;47.788;11.858;2024-03-17T12:19:25;13.20;99.90
26990;DHT22;14537;47.788;11.858;2024-03-17T12:21:53;13.20;99.90
26990;DHT22;14537;47.788;11.858;2024-03-17T12:24:33;13.10;99.90
26990;DHT22;14537;47.788;11.858;2024-03-17T12:26:59;12.90;99.90
26990;DHT22;14537;47.788;11.858;2024-03-17T12:29:40;13.10;99.90
26990;DHT22;14537;47.788;11.858;2024-03-17T12:32:23;13.20;99.90
26990;DHT22;14537;47.788;11.858;2024-03-17T12:34:51;13.10;99.90
26990;DHT22;14537;47.788;11.858;2024-03-17T12:37:25;13.30;99.90
26990;DHT22;14537;47.788;11.858;2024-03-17T12:39:55;13.40;99.90
26990;DHT22;14537;47.788;11.858;2024-03-17T12:42:25;13.50;99.90
26990;DHT22;14537;47.788;11.858;2024-03-17T12:45:01;13.70;99.90
26990;DHT22;14537;47.788;11.858;2024-03-17T12:47:28;13.80;99.90
26990;DHT22;14537;47.788;11.858;2024-03-17T12:49:55;14.00;99.90
26990;DHT22;14537;47.788;11.858;2024-03-17T12:57:46;14.00;99.90
26990;DHT22;14537;47.788;11.858;2024-03-17T13:00:30;14.10;99.90
26990;DHT22;14537;47.788;11.858;2024-03-17T13:03:06;14.30;99.90
26990;DHT22;14537;47.788;11.858;2024-03-17T13:05:32;14.30;99.90
26990;DHT22;14537;47.788;11.858;2024-03-17T13:07:58;14.40;99.90
26990;DHT22;14537;47.788;11.858;2024-03-17T13:10:25;14.30;99.90
26990;DHT22;14537;47.788;11.858;2024-03-17T13:13:05;14.30;99.90
26990;DHT22;14537;47.788;11.858;2024-03-17T13:15:32;13.70;99.90
26990;DHT22;14537;47.788;11.858;2024-03-17T13:18:00;13.70;99.90
26990;DHT22;14537;47.788;11.858;2024-03-17T13:20:26;13.70;99.90
26990;DHT22;14537;47.788;11.858;2024-03-17T13:22:52;13.70;99.90
26990;DHT22;14537;47.788;11.858;2024-03-17T13:25:23;13.70;99.90
26990;DHT22;14537;47.788;11.858;2024-03-17T13:27:52;13.60;99.90
26990;DHT22;14537;47.788;11.858;2024-03-17T13:30:20;13.50;99.90
26990;DHT22;14537;47.788;11.858;2024-03-17T13:32:48;13.40;99.90
26990;DHT22;14537;47.788;11.858;2024-03-17T13:35:18;13.20;99.90
26990;DHT22;14537;47.788;11.858;2024-03-17T13:37:48;13.30;99.90
26990;DHT22;14537;47.788;11.858;2024-03-17T13:40:16;13.50;99.90
26990;DHT22;14537;47.788;11.858;2024-03-17T13:42:47;13.60;99.90
26990;DHT22;14537;47.788;11.858;2024-03-17T13:45:14;13.80;99.90
26990;DHT22;14537;47.788;11.858;2024-03-17T13:47:40;13.80;99.90
26990;DHT22;14537;47.788;11.858;2024-03-17T13:50:07;13.40;99.90
26990;DHT22;14537;47.788;11.858;2024-03-17T13:52:37;13.40;99.90
26990;DHT22;14537;47.788;11.858;2024-03-17T13:55:04;13.60;99.90
26990;DHT22;14537;47.788;11.858;2024-03-17T13:57:32;13.70;99.90
26990;DHT22;14537;47.788;11.858;2024-03-17T13:59:58;13.90;99.90
26990;DHT22;14537;47.788;11.858;2024-03-17T14:02:24;13.80;99.90
26990;DHT22;14537;47.788;11.858;2024-03-17T14:04:49;13.80;99.90
26990;DHT22;14537;47.788;11.858;2024-03-17T14:07:15;13.70;99.90
26990;DHT22;14537;47.788;11.858;2024-03-17T14:09:41;13.40;99.90
26990;DHT22;14537;47.788;11.858;2024-03-17T14:12:10;13.40;99.90
26990;DHT22;14537;47.788;11.858;2024-03-17T14:14:35;13.40;99.90
26990;DHT22;14537;47.788;11.858;2024-03-17T14:17:01;13.30;99.90
26990;DHT22;14537;47.788;11.858;2024-03-17T14:19:27;13.30;99.90
26990;DHT22;14537;47.788;11.858;2024-03-17T14:21:53;13.10;99.90
26990;DHT22;14537;47.788;11.858;2024-03-17T14:24:18;13.20;99.90
26990;DHT22;14537;47.788;11.858;2024-03-17T14:26:44;13.40;99.90
26990;DHT22;14537;47.788;11.858;2024-03-17T14:29:09;13.60;99.90
26990;DHT22;14537;47.788;11.858;2024-03-17T14:31:35;13.70;99.90
26990;DHT22;14537;47.788;11.858;2024-03-17T14:34:03;13.80;99.90
26990;DHT22;14537;47.788;11.858;2024-03-17T14:36:31;14.00;99.90
26990;DHT22;14537;47.788;11.858;2024-03-17T14:39:01;14.10;99.90
26990;DHT22;14537;47.788;11.858;2024-03-17T14:41:30;14.10;99.90
26990;DHT22;14537;47.788;11.858;2024-03-17T14:43:56;14.10;99.90
26990;DHT22;14537;47.788;11.858;2024-03-17T14:46:26;13.60;99.90
26990;DHT22;14537;47.788;11.858;2024-03-17T14:48:53;13.20;99.90
26990;DHT22;14537;47.788;11.858;2024-03-17T14:51:19;13.20;99.90
26990;DHT22;14537;47.788;11.858;2024-03-17T14:53:46;13.10;99.90
26990;DHT22;14537;47.788;11.858;2024-03-17T14:56:20;12.90;99.90
26990;DHT22;14537;47.788;11.858;2024-03-17T14:58:45;12.90;99.90
26990;DHT22;14537;47.788;11.858;2024-03-17T15:01:12;13.00;99.90
26990;DHT22;14537;47.788;11.858;2024-03-17T15:03:38;13.10;99.90
26990;DHT22;14537;47.788;11.858;2024-03-17T15:06:09;13.20;99.90
26990;DHT22;14537;47.788;11.858;2024-03-17T15:08:35;13.10;99.90
26990;DHT22;14537;47.788;11.858;2024-03-17T15:11:00;13.10;99.90
26990;DHT22;14537;47.788;11.858;2024-03-17T15:13:26;13.00;99.90
26990;DHT22;14537;47.788;11.858;2024-03-17T15:15:52;13.00;99.90
26990;DHT22;14537;47.788;11.858;2024-03-17T15:18:20;13.00;99.90
26990;DHT22;14537;47.788;11.858;2024-03-17T15:20:54;13.00;99.90
26990;DHT22;14537;47.788;11.858;2024-03-17T15:23:23;12.80;99.90
26990;DHT22;14537;47.788;11.858;2024-03-17T15:26:04;12.80;99.90
26990;DHT22;14537;47.788;11.858;2024-03-17T15:28:39;12.70;99.90
26990;DHT22;14537;47.788;11.858;2024-03-17T15:31:05;12.70;99.90
26990;DHT22;14537;47.788;11.858;2024-03-17T15:33:32;12.60;99.90
26990;DHT22;14537;47.788;11.858;2024-03-17T15:36:01;12.50;99.90
26990;DHT22;14537;47.788;11.858;2024-03-17T15:38:29;12.50;99.90
26990;DHT22;14537;47.788;11.858;2024-03-17T15:40:56;12.50;99.90
26990;DHT22;14537;47.788;11.858;2024-03-17T15:43:22;12.50;99.90
26990;DHT22;14537;47.788;11.858;2024-03-17T15:45:48;12.40;99.90
26990;DHT22;14537;47.788;11.858;2024-03-17T15:48:13;12.30;99.90
26990;DHT22;14537;47.788;11.858;2024-03-17T15:50:39;12.30;99.90
26990;DHT22;14537;47.788;11.858;2024-03-17T15:53:05;12.30;99.90
26990;DHT22;14537;47.788;11.858;2024-03-17T15:55:32;12.50;99.90
26990;DHT22;14537;47.788;11.858;2024-03-17T15:57:58;12.30;99.90